Time;durP1;ratioP1;P1;durP2;ratioP2;P2;SDS_P1;SDS_P2;PMS_P1;PMS_P2;Temp;Humidity;BMP_temperature;BMP_pressure;BME280_temperature;BME280_humidity;BME280_pressure;Samples;Min_cycle;Max_cycle;Signal;HPM_P1;HPM_P2
2021/05/03 00:00:50;;;;;;;5.33;4.70;;;6.00;16.20;;;;;;5025182;28;20183;-68
2021/05/03 00:03:15;;;;;;;5.40;4.37;;;6.00;19.40;;;;;;5028749;28;20190;-68
2021/05/03 00:05:45;;;;;;;5.00;4.53;;;6.00;19.50;;;;;;5018503;28;20206;-68
2021/05/03 00:08:12;;;;;;;4.82;4.43;;;5.90;20.60;;;;;;5028754;28;20174;-68
2021/05/03 00:10:38;;;;;;;6.55;4.40;;;5.80;21.90;;;;;;5029283;28;20185;-68
2021/05/03 00:13:03;;;;;;;7.53;5.50;;;5.80;24.70;;;;;;5028802;28;20282;-67
2021/05/03 00:15:29;;;;;;;5.70;5.10;;;5.80;26.70;;;;;;5029153;28;20206;-68
2021/05/03 00:17:55;;;;;;;5.20;4.70;;;5.80;30.90;;;;;;5028551;28;20205;-67
2021/05/03 00:20:20;;;;;;;5.97;5.37;;;5.70;34.60;;;;;;5026983;28;20209;-68
2021/05/03 00:22:46;;;;;;;6.07;5.40;;;5.70;33.80;;;;;;5027270;28;20198;-68
2021/05/03 00:25:11;;;;;;;5.57;4.97;;;5.70;33.20;;;;;;5029102;28;20295;-68
2021/05/03 00:27:37;;;;;;;6.97;4.80;;;5.70;35.40;;;;;;5028103;28;20193;-68
2021/05/03 00:30:04;;;;;;;6.83;5.70;;;5.70;35.90;;;;;;5027798;28;20195;-68
2021/05/03 00:32:29;;;;;;;5.75;5.15;;;5.60;37.90;;;;;;5035169;28;20911;-68
2021/05/03 00:34:55;;;;;;;5.60;5.03;;;5.60;36.80;;;;;;5034419;28;20193;-66
2021/05/03 00:37:20;;;;;;;5.90;5.27;;;5.50;41.60;;;;;;5034906;28;20531;-68
2021/05/03 00:39:46;;;;;;;5.37;4.87;;;5.50;43.40;;;;;;5049371;28;20201;-68
2021/05/03 00:42:12;;;;;;;6.60;5.20;;;5.50;42.10;;;;;;5035657;28;20661;-68
2021/05/03 00:44:37;;;;;;;5.77;5.07;;;5.60;41.10;;;;;;5034181;28;20383;-68
2021/05/03 00:47:04;;;;;;;8.73;5.17;;;5.60;40.80;;;;;;5035483;28;20556;-67
2021/05/03 00:49:30;;;;;;;5.97;5.38;;;5.60;41.10;;;;;;5033206;28;20186;-68
2021/05/03 00:51:55;;;;;;;6.13;5.63;;;5.60;46.10;;;;;;5050740;28;20209;-68
2021/05/03 00:54:21;;;;;;;6.97;5.43;;;5.60;44.70;;;;;;5033407;28;20190;-68
2021/05/03 00:56:47;;;;;;;6.70;5.40;;;5.60;44.50;;;;;;5034959;28;20264;-68
2021/05/03 00:59:12;;;;;;;7.17;5.37;;;5.50;44.90;;;;;;5033735;28;20192;-58
2021/05/03 01:01:38;;;;;;;6.73;6.13;;;5.50;46.40;;;;;;5031746;28;20209;-57
2021/05/03 01:04:04;;;;;;;6.30;5.70;;;5.50;49.60;;;;;;5025938;28;20214;-58
2021/05/03 01:06:29;;;;;;;7.03;5.57;;;5.50;49.00;;;;;;5030992;28;20699;-55
2021/05/03 01:08:55;;;;;;;7.40;6.17;;;5.50;48.50;;;;;;5026511;28;20194;-59
2021/05/03 01:11:20;;;;;;;6.63;5.70;;;5.50;51.30;;;;;;5035659;28;20273;-59
2021/05/03 01:13:46;;;;;;;6.40;5.80;;;5.50;52.50;;;;;;5033363;28;20215;-59
2021/05/03 01:16:11;;;;;;;9.60;6.03;;;5.30;54.00;;;;;;5035266;28;20191;-58
2021/05/03 01:18:38;;;;;;;6.30;5.40;;;5.40;58.60;;;;;;5034591;28;20537;-57
2021/05/03 01:21:05;;;;;;;6.70;5.85;;;5.40;59.50;;;;;;5033967;28;20195;-57
2021/05/03 01:23:31;;;;;;;6.75;6.05;;;5.40;61.30;;;;;;5034758;28;20186;-59
2021/05/03 01:25:56;;;;;;;6.93;6.23;;;5.40;63.70;;;;;;5034026;28;20218;-56
2021/05/03 01:28:22;;;;;;;7.30;6.13;;;5.40;66.40;;;;;;5034170;28;20186;-59
2021/05/03 01:30:48;;;;;;;8.57;6.50;;;5.40;69.20;;;;;;5034149;28;20237;-55
2021/05/03 01:33:15;;;;;;;6.78;6.00;;;5.50;61.40;;;;;;5034838;28;20183;-58
2021/05/03 01:35:46;;;;;;;6.97;6.28;;;5.60;59.30;;;;;;5034382;28;20202;-58
2021/05/03 01:38:13;;;;;;;6.22;5.63;;;5.70;56.80;;;;;;5033550;28;20186;-58
2021/05/03 01:40:41;;;;;;;5.72;5.22;;;5.70;55.00;;;;;;5034087;28;20187;-57
2021/05/03 01:43:27;;;;;;;7.35;5.88;;;5.80;49.70;;;;;;5032319;28;20183;-58
2021/05/03 01:45:55;;;;;;;6.38;5.18;;;5.80;51.80;;;;;;5032137;28;20303;-58
2021/05/03 01:48:27;;;;;;;6.25;5.60;;;5.90;50.30;;;;;;5031263;28;20182;-56
2021/05/03 01:50:54;;;;;;;6.55;5.55;;;5.80;47.60;;;;;;5031965;28;20195;-56
2021/05/03 01:53:19;;;;;;;5.90;5.20;;;5.90;44.80;;;;;;5029430;28;20194;-58
2021/05/03 01:55:48;;;;;;;5.50;4.97;;;5.90;42.30;;;;;;5029326;28;20236;-58
2021/05/03 01:58:14;;;;;;;5.78;5.10;;;5.90;42.40;;;;;;5031521;28;20195;-58
2021/05/03 02:00:40;;;;;;;6.23;5.07;;;5.90;37.60;;;;;;5030105;28;20187;-56
2021/05/03 02:03:06;;;;;;;7.25;5.40;;;6.00;34.70;;;;;;5031198;28;20413;-58
2021/05/03 02:05:32;;;;;;;6.97;4.87;;;6.00;36.10;;;;;;5030094;28;20214;-59
2021/05/03 02:08:05;;;;;;;5.32;4.80;;;5.90;37.90;;;;;;5031340;28;20206;-58
2021/05/03 02:10:33;;;;;;;5.90;5.30;;;5.90;39.00;;;;;;5030623;28;20183;-58
2021/05/03 02:13:00;;;;;;;6.15;5.45;;;6.00;36.60;;;;;;5030609;28;20273;-59
2021/05/03 02:15:27;;;;;;;5.18;4.53;;;6.00;34.00;;;;;;5039617;28;20194;-56
2021/05/03 02:17:53;;;;;;;5.07;4.57;;;6.10;29.90;;;;;;5030586;28;20400;-57
2021/05/03 02:20:19;;;;;;;5.80;5.07;;;6.10;24.90;;;;;;5030668;28;20199;-58
2021/05/03 02:22:45;;;;;;;6.13;4.80;;;6.20;26.40;;;;;;5031336;28;20988;-54
2021/05/03 02:25:11;;;;;;;6.35;4.72;;;6.20;26.60;;;;;;5045468;28;20257;-55
2021/05/03 02:27:37;;;;;;;5.13;4.63;;;6.20;25.00;;;;;;5030484;28;20210;-58
2021/05/03 02:30:06;;;;;;;5.50;4.97;;;6.20;27.60;;;;;;5030891;28;20939;-56
2021/05/03 02:32:35;;;;;;;7.72;4.38;;;6.20;26.60;;;;;;5029596;28;20297;-58
2021/05/03 02:35:06;;;;;;;5.45;4.95;;;6.30;22.30;;;;;;5031320;28;20189;-59
2021/05/03 02:37:32;;;;;;;6.57;5.13;;;6.30;17.40;;;;;;5030205;28;20652;-58
2021/05/03 02:39:57;;;;;;;6.47;4.50;;;6.40;13.80;;;;;;5031031;28;20183;-55
2021/05/03 02:42:23;;;;;;;5.23;4.47;;;6.30;9.40;;;;;;5029934;28;20664;-56
2021/05/03 02:44:48;;;;;;;5.40;4.80;;;6.30;14.80;;;;;;5030142;28;20246;-54
2021/05/03 02:47:14;;;;;;;5.80;4.60;;;6.30;17.90;;;;;;5028795;28;20681;-58
2021/05/03 02:49:40;;;;;;;5.73;4.60;;;6.30;16.20;;;;;;5045614;28;20222;-57
2021/05/03 02:52:05;;;;;;;4.70;4.27;;;6.20;13.70;;;;;;5028330;28;20553;-55
2021/05/03 02:54:31;;;;;;;5.23;4.60;;;6.20;11.20;;;;;;5030494;28;20222;-58
2021/05/03 02:56:58;;;;;;;5.82;5.25;;;6.20;10.10;;;;;;5030846;28;20194;-58
2021/05/03 02:59:23;;;;;;;5.38;4.88;;;6.30;11.10;;;;;;5025427;28;20187;-57
2021/05/03 03:01:49;;;;;;;10.50;5.20;;;6.30;9.50;;;;;;5028513;28;20630;-57
2021/05/03 03:04:15;;;;;;;5.57;5.00;;;6.30;10.90;;;;;;5029566;28;20206;-58
2021/05/03 03:06:41;;;;;;;5.90;5.13;;;6.30;9.20;;;;;;5029271;28;20286;-58
2021/05/03 03:09:06;;;;;;;5.40;4.90;;;6.30;8.80;;;;;;5030588;28;20724;-57
2021/05/03 03:11:32;;;;;;;6.00;5.40;;;6.30;5.80;;;;;;5027245;28;20189;-58
2021/05/03 03:13:58;;;;;;;5.70;5.10;;;6.40;6.50;;;;;;5033566;28;20178;-55
2021/05/03 03:16:26;;;;;;;5.80;5.30;;;6.40;1.90;;;;;;5032109;28;20528;-57
2021/05/03 03:18:56;;;;;;;5.32;4.47;;;6.40;1.00;;;;;;5022190;28;20425;-57
2021/05/03 03:21:24;;;;;;;5.70;5.07;;;6.50;1.00;;;;;;5028043;28;20183;-58
2021/05/03 03:23:49;;;;;;;7.70;5.20;;;6.50;1.00;;;;;;5028464;28;20184;-58
2021/05/03 03:26:15;;;;;;;6.53;4.97;;;6.40;1.00;;;;;;5028383;28;20640;-57
2021/05/03 03:28:40;;;;;;;6.77;5.13;;;6.40;1.00;;;;;;5029852;28;20525;-58
2021/05/03 03:31:06;;;;;;;5.93;4.77;;;6.40;1.00;;;;;;5029085;28;20231;-58
2021/05/03 03:33:32;;;;;;;5.57;5.00;;;6.50;1.00;;;;;;5028347;28;20204;-57
2021/05/03 03:35:57;;;;;;;5.13;4.63;;;6.50;1.00;;;;;;5029509;28;20187;-56
2021/05/03 03:38:23;;;;;;;5.07;4.57;;;6.50;1.00;;;;;;5029704;28;20195;-59
2021/05/03 03:40:49;;;;;;;5.53;4.67;;;6.50;1.00;;;;;;5027413;28;20178;-59
2021/05/03 03:43:14;;;;;;;5.97;4.73;;;6.40;1.00;;;;;;5029721;28;20805;-57
2021/05/03 03:45:40;;;;;;;5.20;4.80;;;6.40;1.00;;;;;;5027464;28;20202;-57
2021/05/03 03:48:07;;;;;;;8.03;5.10;;;6.30;1.00;;;;;;5027664;28;20659;-59
2021/05/03 03:50:33;;;;;;;6.25;5.32;;;6.30;1.00;;;;;;5028819;28;20187;-59
2021/05/03 03:52:59;;;;;;;5.60;5.10;;;6.30;1.00;;;;;;5028780;28;20198;-57
2021/05/03 03:55:25;;;;;;;6.10;5.38;;;6.30;1.00;;;;;;5028406;28;20438;-58
2021/05/03 03:57:51;;;;;;;5.93;5.32;;;6.30;1.00;;;;;;5029499;28;20219;-59
2021/05/03 04:00:17;;;;;;;6.47;5.87;;;6.10;6.10;;;;;;5027832;28;20182;-55
2021/05/03 04:02:45;;;;;;;6.88;5.25;;;6.10;1.00;;;;;;5028306;28;20910;-58
2021/05/03 04:05:21;;;;;;;5.85;5.30;;;6.20;1.00;;;;;;5017615;28;20206;-54
2021/05/03 04:07:59;;;;;;;6.57;5.95;;;6.10;1.90;;;;;;5028557;28;20185;-59
2021/05/03 04:26:16;;;;;;;7.50;6.00;;;6.20;1.00;;;;;;5003333;28;20274;-59
2021/05/03 04:28:43;;;;;;;6.57;5.88;;;6.20;1.00;;;;;;5005574;28;20198;-59
2021/05/03 04:31:09;;;;;;;6.60;5.90;;;6.30;1.00;;;;;;5004182;28;20229;-58
2021/05/03 04:33:35;;;;;;;5.90;5.20;;;6.20;1.00;;;;;;5006163;28;20187;-59
2021/05/03 04:36:00;;;;;;;6.83;6.13;;;6.30;1.00;;;;;;5006408;28;20559;-59
2021/05/03 04:38:26;;;;;;;6.03;5.40;;;6.30;1.00;;;;;;5014579;28;20194;-59
2021/05/03 04:40:52;;;;;;;7.93;5.77;;;6.30;1.00;;;;;;5004993;28;20446;-58
2021/05/03 04:43:19;;;;;;;8.63;5.25;;;6.30;1.00;;;;;;5003003;28;21067;-57
2021/05/03 04:45:44;;;;;;;7.10;5.97;;;6.20;1.00;;;;;;5024746;28;20242;-58
2021/05/03 04:48:10;;;;;;;5.93;5.30;;;6.30;1.00;;;;;;5028530;28;20209;-60
2021/05/03 04:50:35;;;;;;;6.10;5.50;;;6.30;1.00;;;;;;5028346;28;20178;-59
2021/05/03 04:53:01;;;;;;;7.80;5.37;;;6.40;1.00;;;;;;5028953;28;20258;-59
2021/05/03 04:55:27;;;;;;;7.23;5.40;;;6.40;1.00;;;;;;5028303;28;20232;-56
2021/05/03 04:57:52;;;;;;;6.80;5.80;;;6.40;1.00;;;;;;5029045;28;20186;-58
2021/05/03 05:00:18;;;;;;;8.70;5.23;;;6.50;1.00;;;;;;5027541;28;20660;-59
2021/05/03 05:02:44;;;;;;;7.43;5.27;;;6.50;1.00;;;;;;5028685;28;20188;-56
2021/05/03 05:05:12;;;;;;;7.97;5.60;;;6.50;1.00;;;;;;5027933;28;20461;-56
2021/05/03 05:07:39;;;;;;;6.72;6.03;;;6.60;1.00;;;;;;5028331;28;20583;-55
2021/05/03 05:10:06;;;;;;;7.43;5.40;;;6.60;1.00;;;;;;5029034;28;20184;-55
2021/05/03 05:12:31;;;;;;;7.95;5.80;;;6.70;1.00;;;;;;5028993;28;20159;-56
2021/05/03 05:14:57;;;;;;;5.93;5.33;;;6.80;1.00;;;;;;5039656;28;20197;-53
2021/05/03 05:17:23;;;;;;;6.23;4.97;;;6.90;1.00;;;;;;5049350;28;20418;-58
2021/05/03 05:19:48;;;;;;;6.20;5.00;;;6.90;1.00;;;;;;5034518;28;20175;-55
2021/05/03 05:22:14;;;;;;;7.30;5.30;;;7.00;1.00;;;;;;5033018;28;20191;-55
2021/05/03 05:24:40;;;;;;;5.40;4.73;;;7.10;1.00;;;;;;5032626;28;20192;-56
2021/05/03 05:27:06;;;;;;;5.20;4.70;;;7.20;1.00;;;;;;5031592;28;20418;-55
2021/05/03 05:29:32;;;;;;;5.97;5.47;;;7.30;1.00;;;;;;5032324;28;20177;-55
2021/05/03 05:31:58;;;;;;;5.20;4.70;;;7.40;1.00;;;;;;5031522;28;20924;-55
2021/05/03 05:34:23;;;;;;;5.20;4.70;;;7.50;1.00;;;;;;5030872;28;20443;-57
2021/05/03 05:36:49;;;;;;;5.97;5.00;;;7.60;1.00;;;;;;5032559;28;20172;-59
2021/05/03 05:39:14;;;;;;;5.60;5.20;;;7.60;1.00;;;;;;5030976;28;20182;-58
2021/05/03 05:41:43;;;;;;;5.20;4.70;;;7.60;1.00;;;;;;5047260;28;20183;-59
2021/05/03 05:44:09;;;;;;;6.13;4.75;;;7.70;1.00;;;;;;5038888;28;20555;-59
2021/05/03 05:46:36;;;;;;;6.20;5.00;;;7.70;1.00;;;;;;5032459;28;20167;-59
2021/05/03 05:49:02;;;;;;;6.47;4.77;;;7.90;1.00;;;;;;5030355;28;20620;-58
2021/05/03 05:51:28;;;;;;;7.45;4.95;;;7.80;1.00;;;;;;5032312;28;20396;-57
2021/05/03 05:53:53;;;;;;;5.83;5.10;;;7.90;1.00;;;;;;5031396;28;20183;-56
2021/05/03 05:56:19;;;;;;;4.90;4.50;;;7.80;1.00;;;;;;5031388;28;20190;-55
2021/05/03 05:58:45;;;;;;;6.10;4.57;;;7.80;1.00;;;;;;5031411;28;20185;-56
2021/05/03 06:01:10;;;;;;;4.97;4.47;;;7.90;1.00;;;;;;5030764;28;20196;-56
2021/05/03 06:03:36;;;;;;;4.60;4.20;;;7.90;1.00;;;;;;5016964;28;20190;-58
2021/05/03 06:06:02;;;;;;;4.80;4.40;;;7.90;1.00;;;;;;5029061;28;20860;-59
2021/05/03 06:08:28;;;;;;;4.67;4.27;;;7.80;1.00;;;;;;5031194;28;20428;-58
2021/05/03 06:10:54;;;;;;;4.70;4.30;;;7.80;1.00;;;;;;5031098;28;20455;-57
2021/05/03 06:13:19;;;;;;;4.77;4.20;;;7.70;1.00;;;;;;5031470;28;20186;-57
2021/05/03 06:15:45;;;;;;;5.10;4.60;;;7.70;1.00;;;;;;5034260;28;20566;-57
2021/05/03 06:18:11;;;;;;;6.00;5.20;;;7.60;1.00;;;;;;5031314;28;20527;-58
2021/05/03 06:20:38;;;;;;;5.97;5.00;;;7.60;1.00;;;;;;5030848;28;20440;-60
2021/05/03 06:23:06;;;;;;;5.60;4.97;;;7.60;1.00;;;;;;5031146;28;20953;-60
2021/05/03 06:25:32;;;;;;;5.93;5.33;;;7.70;1.00;;;;;;5030292;28;20468;-60
2021/05/03 06:27:58;;;;;;;5.40;4.90;;;7.70;1.00;;;;;;5031050;28;20416;-59
2021/05/03 06:30:24;;;;;;;5.80;5.33;;;7.80;1.00;;;;;;5028627;28;20951;-59
2021/05/03 06:32:51;;;;;;;5.73;5.13;;;8.00;1.00;;;;;;5030247;28;20450;-58
2021/05/03 06:35:16;;;;;;;6.60;5.93;;;8.00;1.00;;;;;;5030635;28;20781;-58
2021/05/03 06:37:42;;;;;;;5.87;5.37;;;8.20;1.00;;;;;;5025960;28;20470;-60
2021/05/03 06:40:08;;;;;;;6.90;6.23;;;8.20;1.00;;;;;;5029556;28;20182;-57
2021/05/03 06:42:34;;;;;;;5.90;5.27;;;8.40;1.00;;;;;;5032593;28;20190;-57
2021/05/03 06:45:00;;;;;;;6.33;5.73;;;8.50;1.00;;;;;;5030300;28;21000;-60
2021/05/03 06:47:27;;;;;;;6.93;6.20;;;8.70;1.00;;;;;;5029686;28;20417;-56
2021/05/03 06:49:52;;;;;;;7.30;6.10;;;8.80;1.00;;;;;;5029687;28;20182;-55
2021/05/03 06:52:18;;;;;;;7.23;6.53;;;8.80;1.00;;;;;;5030011;28;20417;-59
2021/05/03 06:54:44;;;;;;;6.90;6.30;;;8.90;1.00;;;;;;5029763;28;20636;-55
2021/05/03 06:57:09;;;;;;;7.07;6.37;;;8.70;1.00;;;;;;5029779;28;20924;-58
2021/05/03 06:59:35;;;;;;;6.80;6.10;;;8.80;1.00;;;;;;5029377;28;20197;-59
2021/05/03 07:02:01;;;;;;;6.67;6.13;;;8.70;1.00;;;;;;5029817;28;20193;-58
2021/05/03 07:04:26;;;;;;;7.23;6.53;;;8.70;1.00;;;;;;5029539;28;20258;-56
2021/05/03 07:06:52;;;;;;;7.40;6.40;;;8.70;1.00;;;;;;5026764;28;20191;-57
2021/05/03 07:09:17;;;;;;;7.13;6.43;;;8.70;1.00;;;;;;5029341;28;20193;-56
2021/05/03 07:11:45;;;;;;;6.87;6.20;;;8.80;1.00;;;;;;5029144;28;20203;-59
2021/05/03 07:14:10;;;;;;;6.93;6.23;;;8.90;1.00;;;;;;5034785;28;20181;-58
2021/05/03 07:16:36;;;;;;;6.87;5.30;;;8.90;99.90;;;;;;5030585;28;20768;-57
2021/05/03 07:19:02;;;;;;;8.00;5.70;;;8.90;1.00;;;;;;5029265;28;20243;-58
2021/05/03 07:21:29;;;;;;;6.13;5.60;;;9.10;1.00;;;;;;5029127;28;20560;-56
2021/05/03 07:23:54;;;;;;;6.20;5.70;;;9.20;99.90;;;;;;5029007;28;20421;-59
2021/05/03 07:26:20;;;;;;;6.97;6.30;;;9.20;99.90;;;;;;5029176;28;21085;-59
2021/05/03 07:28:46;;;;;;;5.30;4.90;;;9.20;99.90;;;;;;5029871;28;20186;-60
2021/05/03 07:31:11;;;;;;;5.50;5.07;;;9.50;1.00;;;;;;5039702;28;20310;-59
2021/05/03 07:33:37;;;;;;;5.17;4.77;;;9.30;1.00;;;;;;5028932;28;20190;-60
2021/05/03 07:36:03;;;;;;;4.73;4.33;;;9.20;99.90;;;;;;5029142;28;20190;-60
2021/05/03 07:38:30;;;;;;;5.03;4.63;;;9.30;91.20;;;;;;5029001;28;20190;-58
2021/05/03 07:40:55;;;;;;;4.90;4.50;;;9.30;1.00;;;;;;5027218;28;20480;-60
2021/05/03 07:43:22;;;;;;;5.13;4.73;;;9.40;48.30;;;;;;5028665;28;20467;-58
2021/05/03 07:45:47;;;;;;;5.10;4.70;;;9.30;1.00;;;;;;5028130;28;20248;-57
2021/05/03 07:48:13;;;;;;;6.03;5.60;;;9.20;1.00;;;;;;5028697;28;20456;-57
2021/05/03 07:50:38;;;;;;;6.47;5.97;;;9.20;99.90;;;;;;5028291;28;20285;-58
2021/05/03 07:53:05;;;;;;;5.27;4.77;;;9.30;1.00;;;;;;5028959;28;20182;-56
2021/05/03 07:55:31;;;;;;;5.37;4.90;;;9.50;1.00;;;;;;5028813;28;20183;-58
2021/05/03 07:57:58;;;;;;;5.50;5.10;;;9.70;1.00;;;;;;5028211;28;20433;-59
2021/05/03 08:00:23;;;;;;;5.50;5.10;;;10.00;1.00;;;;;;5028763;28;20198;-60
2021/05/03 08:02:49;;;;;;;6.57;6.00;;;9.90;1.00;;;;;;5028217;28;20437;-59
2021/05/03 08:05:14;;;;;;;5.70;5.30;;;9.80;1.00;;;;;;5028377;28;20281;-58
2021/05/03 08:07:40;;;;;;;5.77;5.37;;;9.80;1.00;;;;;;5018318;28;20674;-59
2021/05/03 08:10:07;;;;;;;7.10;5.90;;;9.80;1.00;;;;;;5023519;28;20194;-58
2021/05/03 08:12:33;;;;;;;5.83;5.33;;;9.90;1.00;;;;;;5028409;28;20460;-60
2021/05/03 08:15:04;;;;;;;6.03;5.53;;;10.00;1.00;;;;;;5021794;28;20494;-58
2021/05/03 08:17:30;;;;;;;6.17;5.77;;;9.90;1.00;;;;;;5015469;28;20205;-58
2021/05/03 08:19:55;;;;;;;6.03;5.53;;;10.00;1.00;;;;;;5028647;28;20425;-58
2021/05/03 08:22:21;;;;;;;6.03;5.43;;;10.00;1.00;;;;;;5027895;28;20190;-58
2021/05/03 08:24:46;;;;;;;6.03;5.57;;;10.20;1.00;;;;;;5028517;28;20206;-59
2021/05/03 08:27:12;;;;;;;5.93;5.33;;;10.30;1.00;;;;;;5028592;28;20191;-57
2021/05/03 08:29:38;;;;;;;5.77;5.37;;;10.30;1.00;;;;;;5016232;28;20705;-55
2021/05/03 08:32:04;;;;;;;5.90;5.50;;;10.30;1.00;;;;;;5026428;28;20316;-58
2021/05/03 08:34:30;;;;;;;6.30;5.80;;;10.10;1.00;;;;;;5028803;28;20194;-58
2021/05/03 08:36:56;;;;;;;6.10;5.60;;;10.00;1.00;;;;;;5017134;28;20434;-58
2021/05/03 08:39:23;;;;;;;5.87;5.47;;;10.20;1.00;;;;;;5028414;28;20432;-57
2021/05/03 08:41:49;;;;;;;5.77;5.37;;;10.60;1.00;;;;;;5027863;28;20468;-58
2021/05/03 08:44:15;;;;;;;6.03;5.63;;;10.90;1.00;;;;;;5025505;28;20922;-58
2021/05/03 08:46:44;;;;;;;6.27;5.70;;;11.30;1.00;;;;;;5025123;28;20429;-57
2021/05/03 08:51:47;;;;;;;6.23;5.73;;;11.50;99.90;;;;;;5027633;28;20515;-59
2021/05/03 08:54:38;;;;;;;6.23;5.83;;;11.10;99.90;;;;;;5030076;28;20944;-57
2021/05/03 08:57:05;;;;;;;6.40;6.00;;;10.90;1.00;;;;;;5032272;28;20840;-58
2021/05/03 08:59:30;;;;;;;6.43;6.03;;;11.00;99.90;;;;;;5031730;28;20417;-60
2021/05/03 09:01:57;;;;;;;6.83;6.20;;;11.10;99.90;;;;;;5032156;28;20463;-60
2021/05/03 09:04:23;;;;;;;7.63;6.43;;;11.10;99.90;;;;;;5032128;28;20237;-59
2021/05/03 09:07:01;;;;;;;7.43;6.10;;;11.30;99.90;;;;;;5029857;28;20932;-60
2021/05/03 09:09:47;;;;;;;5.93;5.37;;;11.80;99.90;;;;;;5029537;28;21259;-56
2021/05/03 09:12:18;;;;;;;6.83;5.80;;;12.30;99.90;;;;;;5028348;28;21016;-59
2021/05/03 09:14:48;;;;;;;6.97;6.40;;;12.40;99.90;;;;;;5032047;28;21336;-60
2021/05/03 09:17:29;;;;;;;6.83;6.30;;;12.00;99.90;;;;;;5030807;28;20542;-57
2021/05/03 09:19:56;;;;;;;7.53;6.93;;;11.80;99.90;;;;;;5031887;28;21119;-59
2021/05/03 09:23:04;;;;;;;7.53;7.03;;;11.70;99.90;;;;;;5031382;28;20566;-59
2021/05/03 09:25:30;;;;;;;6.60;6.10;;;11.90;99.90;;;;;;5031816;28;20464;-59
2021/05/03 09:28:13;;;;;;;7.17;6.57;;;11.90;99.90;;;;;;5029283;28;20408;-59
2021/05/03 09:30:44;;;;;;;6.50;6.00;;;12.20;99.90;;;;;;5030977;28;20893;-59
2021/05/03 09:33:20;;;;;;;6.50;6.10;;;12.70;99.90;;;;;;5031663;28;20393;-59
2021/05/03 09:35:46;;;;;;;6.40;5.90;;;12.90;99.90;;;;;;5030796;28;20434;-60
2021/05/03 09:38:27;;;;;;;6.33;5.93;;;13.70;99.90;;;;;;5031177;28;20930;-60
2021/05/03 09:41:19;;;;;;;6.13;5.73;;;14.00;99.90;;;;;;5031447;28;20669;-59
2021/05/03 09:43:59;;;;;;;5.77;5.27;;;14.40;99.90;;;;;;5030465;28;20431;-59
2021/05/03 09:46:47;;;;;;;5.70;5.40;;;15.30;99.90;;;;;;5011842;28;20937;-58
2021/05/03 09:49:18;;;;;;;5.53;5.13;;;15.30;99.90;;;;;;5023959;28;20899;-59
2021/05/03 09:51:49;;;;;;;5.20;4.90;;;15.10;99.90;;;;;;5031538;28;20433;-59
2021/05/03 09:54:16;;;;;;;4.77;4.47;;;14.70;99.90;;;;;;5030675;28;20449;-57
2021/05/03 09:56:50;;;;;;;5.37;5.00;;;13.70;99.90;;;;;;5031306;28;20419;-59
2021/05/03 09:59:36;;;;;;;5.20;4.90;;;13.50;99.90;;;;;;5030597;28;20522;-59
2021/05/03 10:02:15;;;;;;;5.10;4.80;;;13.50;99.90;;;;;;5031065;28;20423;-58
2021/05/03 10:04:50;;;;;;;5.27;4.97;;;13.50;99.90;;;;;;5028067;28;20814;-59
2021/05/03 10:07:19;;;;;;;4.97;4.67;;;13.70;99.90;;;;;;5025079;28;20424;-55
2021/05/03 10:12:31;;;;;;;5.33;5.03;;;13.70;99.90;;;;;;5015531;28;20419;-60
2021/05/03 10:14:59;;;;;;;5.20;4.80;;;13.90;99.90;;;;;;5030533;28;21094;-57
2021/05/03 10:17:27;;;;;;;5.10;4.80;;;14.50;99.90;;;;;;5030653;28;20471;-60
2021/05/03 10:19:57;;;;;;;4.90;4.70;;;15.10;99.90;;;;;;5029150;28;20443;-55
2021/05/03 10:22:23;;;;;;;4.73;4.47;;;15.30;99.90;;;;;;5030900;28;20501;-58
2021/05/03 10:24:52;;;;;;;4.73;4.43;;;15.40;99.90;;;;;;5028337;28;21159;-59
2021/05/03 10:27:19;;;;;;;5.20;4.77;;;14.60;99.90;;;;;;5030473;28;20460;-57
2021/05/03 10:29:45;;;;;;;5.40;5.00;;;14.30;99.90;;;;;;5028558;28;20445;-59
2021/05/03 10:32:20;;;;;;;4.27;4.07;;;14.80;99.90;;;;;;5030339;28;21112;-59
2021/05/03 10:34:51;;;;;;;4.70;4.30;;;15.50;99.90;;;;;;5029782;28;21046;-60
2021/05/03 10:37:33;;;;;;;4.83;4.53;;;16.00;99.90;;;;;;5030184;28;20461;-60
2021/05/03 10:40:21;;;;;;;4.40;4.10;;;15.70;99.90;;;;;;5019360;28;20433;-60
2021/05/03 10:43:02;;;;;;;4.70;4.40;;;15.10;99.90;;;;;;5029108;28;20453;-60
2021/05/03 10:46:07;;;;;;;4.90;4.70;;;14.20;99.90;;;;;;5026127;28;20454;-59
2021/05/03 10:48:58;;;;;;;4.80;4.47;;;13.50;99.90;;;;;;5029516;28;20413;-58
2021/05/03 10:54:13;;;;;;;4.17;3.97;;;14.00;99.90;;;;;;5029633;28;20433;-60
2021/05/03 10:56:39;;;;;;;4.57;4.27;;;13.50;99.90;;;;;;5020992;28;20446;-60
2021/05/03 10:59:10;;;;;;;4.43;4.23;;;13.10;99.90;;;;;;5026299;28;20453;-60
2021/05/03 11:01:54;;;;;;;4.43;3.70;;;13.20;99.90;;;;;;5012342;28;20509;-57
2021/05/03 11:04:26;;;;;;;4.63;4.33;;;13.20;99.90;;;;;;5010367;28;21027;-59
2021/05/03 11:06:51;;;;;;;4.30;4.10;;;13.70;99.90;;;;;;5015992;28;20425;-59
2021/05/03 11:09:34;;;;;;;3.83;3.63;;;14.40;99.90;;;;;;5012740;28;20513;-59
2021/05/03 11:12:05;;;;;;;4.00;3.80;;;15.20;99.90;;;;;;5014017;28;20221;-59
2021/05/03 11:14:32;;;;;;;3.90;3.70;;;15.70;99.90;;;;;;5012390;28;21190;-58
2021/05/03 11:17:01;;;;;;;3.80;3.60;;;16.60;99.90;;;;;;5009721;28;20431;-60
2021/05/03 11:22:09;;;;;;;6.23;3.60;;;18.10;99.90;;;;;;5026544;28;20840;-58
2021/05/03 11:24:46;;;;;;;3.20;3.00;;;18.30;99.90;;;;;;5029116;28;20457;-59
2021/05/03 11:27:23;;;;;;;3.47;3.27;;;18.30;99.90;;;;;;5028868;28;20523;-61
2021/05/03 11:32:39;;;;;;;3.77;3.57;;;18.60;99.90;;;;;;5029471;28;20447;-68
2021/05/03 11:35:23;;;;;;;3.80;3.60;;;18.30;99.90;;;;;;5020933;28;20424;-68
2021/05/03 11:37:59;;;;;;;3.77;3.53;;;18.30;99.90;;;;;;5028280;28;20440;-67
2021/05/03 11:40:47;;;;;;;4.33;4.03;;;17.60;99.90;;;;;;5028898;28;20470;-66
2021/05/03 11:46:08;;;;;;;4.10;3.70;;;18.80;99.90;;;;;;5029059;28;20510;-67
2021/05/03 11:48:33;;;;;;;3.60;3.40;;;19.00;99.90;;;;;;5028710;28;20415;-65
2021/05/03 11:51:10;;;;;;;3.30;3.10;;;19.30;99.90;;;;;;5028772;28;20438;-66
2021/05/03 11:53:41;;;;;;;3.70;3.43;;;19.10;99.90;;;;;;5028980;28;20889;-66
2021/05/03 11:56:25;;;;;;;4.30;4.00;;;18.60;99.90;;;;;;5028567;28;20425;-67
2021/05/03 11:59:01;;;;;;;3.70;3.50;;;17.80;99.90;;;;;;5028467;28;20425;-65
2021/05/03 12:01:28;;;;;;;3.97;3.77;;;17.60;99.90;;;;;;5040403;28;20504;-65
2021/05/03 12:03:59;;;;;;;4.00;3.70;;;17.10;99.90;;;;;;5028931;28;20931;-67
2021/05/03 12:06:34;;;;;;;3.70;3.50;;;17.30;99.90;;;;;;5028531;28;20442;-67
2021/05/03 12:09:05;;;;;;;3.73;3.53;;;17.30;99.90;;;;;;5027384;28;20412;-69
2021/05/03 12:11:31;;;;;;;4.77;4.37;;;16.90;99.90;;;;;;5022460;28;20420;-68
2021/05/03 12:13:57;;;;;;;4.20;3.90;;;16.80;99.90;;;;;;5031420;28;20426;-66
2021/05/03 12:16:39;;;;;;;4.57;4.37;;;16.50;99.90;;;;;;5033615;28;20212;-69
2021/05/03 12:19:16;;;;;;;4.20;4.00;;;16.20;99.90;;;;;;5017359;28;20430;-61
2021/05/03 12:21:42;;;;;;;4.47;4.27;;;16.00;99.90;;;;;;5028347;28;20469;-60
2021/05/03 12:24:19;;;;;;;3.70;3.50;;;16.00;99.90;;;;;;5028204;28;20417;-61
2021/05/03 12:26:56;;;;;;;4.07;3.87;;;15.70;99.90;;;;;;5027116;28;20850;-56
2021/05/03 12:29:22;;;;;;;4.60;4.40;;;15.70;99.90;;;;;;5027952;28;20414;-60
2021/05/03 12:31:49;;;;;;;4.53;4.30;;;15.60;99.90;;;;;;5027901;28;20519;-58
2021/05/03 12:34:20;;;;;;;4.10;3.90;;;15.50;99.90;;;;;;5028295;28;20457;-58
2021/05/03 12:37:04;;;;;;;4.50;4.27;;;15.30;99.90;;;;;;5027900;28;20410;-57
2021/05/03 12:39:34;;;;;;;4.90;4.60;;;15.20;99.90;;;;;;5028215;28;20491;-58
2021/05/03 12:42:20;;;;;;;4.50;4.20;;;15.20;99.90;;;;;;5027604;28;20432;-58
2021/05/03 12:44:57;;;;;;;4.77;4.47;;;15.30;99.90;;;;;;5028075;28;20484;-59
2021/05/03 12:50:09;;;;;;;5.07;4.77;;;15.50;99.90;;;;;;5028825;28;20428;-58
2021/05/03 12:52:43;;;;;;;4.70;4.40;;;15.90;99.90;;;;;;5027488;28;20444;-59
2021/05/03 12:55:20;;;;;;;5.43;5.13;;;16.00;99.90;;;;;;5027642;28;20471;-59
2021/05/03 12:58:05;;;;;;;7.20;4.90;;;16.10;99.90;;;;;;5025693;28;20967;-59
2021/05/03 13:00:49;;;;;;;4.87;4.57;;;16.10;99.90;;;;;;5028158;28;20438;-60
2021/05/03 13:03:17;;;;;;;5.10;4.83;;;16.10;99.90;;;;;;5027061;28;20443;-59
2021/05/03 13:06:04;;;;;;;5.27;4.97;;;16.20;99.90;;;;;;5029539;28;20973;-59
2021/05/03 13:08:47;;;;;;;5.10;4.80;;;16.20;99.90;;;;;;5029210;28;20530;-55
2021/05/03 13:22:48;;;;;;;5.70;5.40;;;17.40;99.90;;;;;;5028408;28;20759;-58
2021/05/03 13:28:07;;;;;;;6.10;5.70;;;16.60;99.90;;;;;;5027299;28;20463;-55
2021/05/03 13:30:35;;;;;;;5.63;5.33;;;16.80;99.90;;;;;;5026464;28;20460;-56
2021/05/03 13:33:00;;;;;;;5.70;5.40;;;17.40;99.90;;;;;;5027783;28;20408;-58
2021/05/03 13:35:26;;;;;;;5.30;4.93;;;18.20;99.90;;;;;;5026803;28;20437;-58
2021/05/03 13:37:52;;;;;;;5.80;5.40;;;18.40;99.90;;;;;;5027723;28;20273;-58
2021/05/03 13:40:17;;;;;;;5.30;5.00;;;18.90;99.90;;;;;;5031894;28;20425;-57
2021/05/03 13:42:44;;;;;;;5.40;5.00;;;19.10;99.90;;;;;;5031173;28;20202;-57
2021/05/03 13:45:11;;;;;;;5.53;5.20;;;19.80;99.90;;;;;;5030562;28;20214;-60
2021/05/03 13:47:37;;;;;;;5.83;5.53;;;19.90;99.90;;;;;;5031793;28;20504;-59
2021/05/03 13:50:03;;;;;;;5.40;5.10;;;19.70;99.90;;;;;;5030974;28;20520;-60
2021/05/03 13:52:29;;;;;;;5.30;5.00;;;19.50;99.90;;;;;;5031401;28;20186;-59
2021/05/03 13:54:54;;;;;;;5.97;5.57;;;19.10;99.90;;;;;;5030324;28;20441;-59